Portada
METAR-TAF:

METAR-TAF

Aeropuertos :

Cazaux, Francia

latitud: 44-32N, longitud: 001-08W, altitud: 25 m

Observación

El informe se hizo hace 17 minutos, a las 15:30 UTC
Viento 3 kt del este-sureste
Temperatura 6°C
Humedad 65%
Presión 1003 hPa
Visibilidad 10 km o más
sin nubes por debajo de 1500 m y sin presencia de cumulonimbus.

METAR: LFBC 201530Z AUTO 11003KT CAVOK 06/00 Q1003 NOSIG

Hora: 16:47 (15:47 UTC)

Pronóstico

El informe se hizo hace 1 hora y 47 minutos, a las 14:00 UTC
Pronóstico válido del 20 a las 15 UTC al 21 a las 15 UTC
Viento 5 kt del este-noreste
Visibilidad 10 km o más
Escasas nubes a una altura de 2000 ft
Probabilidad 30% :
Temporalmente
del 20 a las 20 UTC al 21 a las 08 UTC
Visibilidad: 3000 m
neblina
Probabilidad 40% :
Temporalmente
del 20 a las 23 UTC al 21 a las 09 UTC
Visibilidad: 0800 m
niebla en bancos

TAF: LFBC 201400Z 2015/2115 06005KT 9999 FEW020 PROB30 TEMPO 2020/2108 3000 BR PROB40 TEMPO 2023/2109 0800 BCFG

Observaciones y pronósticos meteorológicos de más de 4000 aeropuertos (mensajes METAR y TAF).

Los puntos amarillos y rojos representan las estaciones disponibles.

Ponga el ratón en el punto deseado para ver el nombre de la estación.

Haga clic para ver las observaciones y los pronósticos meteorológicos.

Para cambiar el mapa : haga clic en los botones verdes con una cruz de color negro para hacer un zoom, en el botón verde con un guión para alejar o en las flechas verdes para mapas adyacentes.


METAR-TAF: